sensor_id;sensor_type;location;lat;lon;timestamp;P1;durP1;ratioP1;P2;durP2;ratioP2
54909;SDS011;63189;51.240;9.964;2023-02-26T00:00:06;4.63;;;1.75;;
54909;SDS011;63189;51.240;9.964;2023-02-26T00:02:37;9.07;;;1.88;;
54909;SDS011;63189;51.240;9.964;2023-02-26T00:05:03;5.32;;;1.67;;
54909;SDS011;63189;51.240;9.964;2023-02-26T00:07:30;8.70;;;1.73;;
54909;SDS011;63189;51.240;9.964;2023-02-26T00:09:55;4.70;;;1.63;;
54909;SDS011;63189;51.240;9.964;2023-02-26T00:12:21;4.80;;;1.80;;
54909;SDS011;63189;51.240;9.964;2023-02-26T00:14:46;4.85;;;1.73;;
54909;SDS011;63189;51.240;9.964;2023-02-26T00:19:59;7.70;;;2.00;;
54909;SDS011;63189;51.240;9.964;2023-02-26T00:22:25;4.28;;;1.83;;
54909;SDS011;63189;51.240;9.964;2023-02-26T00:24:50;6.20;;;1.80;;
54909;SDS011;63189;51.240;9.964;2023-02-26T00:27:16;3.33;;;1.40;;
54909;SDS011;63189;51.240;9.964;2023-02-26T00:29:41;5.30;;;1.60;;
54909;SDS011;63189;51.240;9.964;2023-02-26T00:32:07;5.13;;;1.70;;
54909;SDS011;63189;51.240;9.964;2023-02-26T00:34:34;7.60;;;2.17;;
54909;SDS011;63189;51.240;9.964;2023-02-26T00:42:11;6.55;;;1.73;;
54909;SDS011;63189;51.240;9.964;2023-02-26T00:44:37;6.18;;;1.58;;
54909;SDS011;63189;51.240;9.964;2023-02-26T00:52:41;5.53;;;1.63;;
54909;SDS011;63189;51.240;9.964;2023-02-26T00:55:12;5.88;;;1.90;;
54909;SDS011;63189;51.240;9.964;2023-02-26T00:57:38;5.40;;;1.77;;
54909;SDS011;63189;51.240;9.964;2023-02-26T01:00:04;6.68;;;1.90;;
54909;SDS011;63189;51.240;9.964;2023-02-26T01:02:32;3.65;;;1.45;;
54909;SDS011;63189;51.240;9.964;2023-02-26T01:04:59;7.38;;;2.03;;
54909;SDS011;63189;51.240;9.964;2023-02-26T01:07:25;5.00;;;1.70;;
54909;SDS011;63189;51.240;9.964;2023-02-26T01:09:52;4.68;;;1.85;;
54909;SDS011;63189;51.240;9.964;2023-02-26T01:12:17;7.03;;;1.88;;
54909;SDS011;63189;51.240;9.964;2023-02-26T01:14:43;4.93;;;2.40;;
54909;SDS011;63189;51.240;9.964;2023-02-26T01:17:26;7.18;;;1.67;;
54909;SDS011;63189;51.240;9.964;2023-02-26T01:20:02;4.45;;;1.65;;
54909;SDS011;63189;51.240;9.964;2023-02-26T01:22:36;5.38;;;2.13;;
54909;SDS011;63189;51.240;9.964;2023-02-26T01:25:17;6.13;;;1.70;;
54909;SDS011;63189;51.240;9.964;2023-02-26T01:28:02;6.93;;;1.60;;
54909;SDS011;63189;51.240;9.964;2023-02-26T01:30:28;7.75;;;2.30;;
54909;SDS011;63189;51.240;9.964;2023-02-26T01:33:02;5.60;;;1.50;;
54909;SDS011;63189;51.240;9.964;2023-02-26T01:35:41;8.13;;;1.90;;
54909;SDS011;63189;51.240;9.964;2023-02-26T01:38:16;5.40;;;1.70;;
54909;SDS011;63189;51.240;9.964;2023-02-26T01:41:04;6.00;;;1.70;;
54909;SDS011;63189;51.240;9.964;2023-02-26T01:49:18;6.85;;;2.30;;
54909;SDS011;63189;51.240;9.964;2023-02-26T01:54:21;3.33;;;1.70;;
54909;SDS011;63189;51.240;9.964;2023-02-26T01:56:49;6.45;;;1.85;;
54909;SDS011;63189;51.240;9.964;2023-02-26T01:59:21;5.47;;;1.90;;
54909;SDS011;63189;51.240;9.964;2023-02-26T02:01:49;5.82;;;2.30;;
54909;SDS011;63189;51.240;9.964;2023-02-26T02:04:16;5.07;;;2.10;;
54909;SDS011;63189;51.240;9.964;2023-02-26T02:06:42;3.53;;;2.05;;
54909;SDS011;63189;51.240;9.964;2023-02-26T02:09:09;3.70;;;1.42;;
54909;SDS011;63189;51.240;9.964;2023-02-26T02:11:35;5.45;;;2.08;;
54909;SDS011;63189;51.240;9.964;2023-02-26T02:14:20;6.78;;;2.10;;
54909;SDS011;63189;51.240;9.964;2023-02-26T02:17:18;6.18;;;2.35;;
54909;SDS011;63189;51.240;9.964;2023-02-26T02:33:49;8.90;;;2.47;;
54909;SDS011;63189;51.240;9.964;2023-02-26T02:36:31;4.78;;;2.15;;
54909;SDS011;63189;51.240;9.964;2023-02-26T02:39:03;9.30;;;1.83;;
54909;SDS011;63189;51.240;9.964;2023-02-26T02:41:37;6.07;;;2.03;;
54909;SDS011;63189;51.240;9.964;2023-02-26T02:44:10;5.28;;;1.95;;
54909;SDS011;63189;51.240;9.964;2023-02-26T02:46:39;7.88;;;2.55;;
54909;SDS011;63189;51.240;9.964;2023-02-26T02:49:13;6.80;;;2.45;;
54909;SDS011;63189;51.240;9.964;2023-02-26T02:51:44;5.65;;;2.33;;
54909;SDS011;63189;51.240;9.964;2023-02-26T02:54:16;6.25;;;1.90;;
54909;SDS011;63189;51.240;9.964;2023-02-26T02:59:34;6.25;;;2.15;;
54909;SDS011;63189;51.240;9.964;2023-02-26T03:02:10;4.88;;;2.22;;
54909;SDS011;63189;51.240;9.964;2023-02-26T03:04:56;4.07;;;2.05;;
54909;SDS011;63189;51.240;9.964;2023-02-26T03:07:21;5.60;;;2.38;;
54909;SDS011;63189;51.240;9.964;2023-02-26T03:09:46;6.82;;;2.35;;
54909;SDS011;63189;51.240;9.964;2023-02-26T03:12:12;5.22;;;2.42;;
54909;SDS011;63189;51.240;9.964;2023-02-26T03:14:37;7.40;;;2.70;;
54909;SDS011;63189;51.240;9.964;2023-02-26T03:22:33;4.65;;;2.15;;
54909;SDS011;63189;51.240;9.964;2023-02-26T03:27:46;5.68;;;2.72;;
54909;SDS011;63189;51.240;9.964;2023-02-26T03:30:18;7.22;;;2.95;;
54909;SDS011;63189;51.240;9.964;2023-02-26T03:41:05;5.47;;;2.20;;
54909;SDS011;63189;51.240;9.964;2023-02-26T03:43:39;5.50;;;2.35;;
54909;SDS011;63189;51.240;9.964;2023-02-26T03:46:12;6.55;;;2.30;;
54909;SDS011;63189;51.240;9.964;2023-02-26T03:48:42;6.40;;;2.25;;
54909;SDS011;63189;51.240;9.964;2023-02-26T03:51:10;9.15;;;2.65;;
54909;SDS011;63189;51.240;9.964;2023-02-26T03:53:48;5.80;;;2.80;;
54909;SDS011;63189;51.240;9.964;2023-02-26T03:56:20;4.72;;;2.45;;
54909;SDS011;63189;51.240;9.964;2023-02-26T03:58:57;6.85;;;2.63;;
54909;SDS011;63189;51.240;9.964;2023-02-26T04:01:23;8.23;;;2.85;;
54909;SDS011;63189;51.240;9.964;2023-02-26T04:04:00;7.93;;;3.08;;
54909;SDS011;63189;51.240;9.964;2023-02-26T04:06:32;5.72;;;2.60;;
54909;SDS011;63189;51.240;9.964;2023-02-26T04:08:58;5.47;;;2.35;;
54909;SDS011;63189;51.240;9.964;2023-02-26T04:11:25;6.57;;;2.50;;
54909;SDS011;63189;51.240;9.964;2023-02-26T04:13:52;8.18;;;3.30;;
54909;SDS011;63189;51.240;9.964;2023-02-26T04:16:17;6.53;;;3.13;;
54909;SDS011;63189;51.240;9.964;2023-02-26T04:18:43;6.10;;;2.75;;
54909;SDS011;63189;51.240;9.964;2023-02-26T04:21:12;6.82;;;2.47;;
54909;SDS011;63189;51.240;9.964;2023-02-26T04:23:39;7.07;;;2.20;;
54909;SDS011;63189;51.240;9.964;2023-02-26T04:26:05;5.88;;;2.30;;
54909;SDS011;63189;51.240;9.964;2023-02-26T04:28:30;5.00;;;2.38;;
54909;SDS011;63189;51.240;9.964;2023-02-26T04:30:56;7.63;;;2.70;;
54909;SDS011;63189;51.240;9.964;2023-02-26T04:33:21;5.28;;;2.70;;
54909;SDS011;63189;51.240;9.964;2023-02-26T04:35:47;6.28;;;2.03;;
54909;SDS011;63189;51.240;9.964;2023-02-26T04:38:13;7.22;;;2.53;;
54909;SDS011;63189;51.240;9.964;2023-02-26T04:40:39;5.10;;;2.70;;
54909;SDS011;63189;51.240;9.964;2023-02-26T04:43:04;7.97;;;3.00;;
54909;SDS011;63189;51.240;9.964;2023-02-26T04:45:29;9.10;;;2.15;;
54909;SDS011;63189;51.240;9.964;2023-02-26T04:47:55;6.15;;;2.80;;
54909;SDS011;63189;51.240;9.964;2023-02-26T04:50:20;9.10;;;2.60;;
54909;SDS011;63189;51.240;9.964;2023-02-26T04:52:45;5.93;;;2.50;;
54909;SDS011;63189;51.240;9.964;2023-02-26T04:55:11;6.32;;;2.35;;
54909;SDS011;63189;51.240;9.964;2023-02-26T04:57:36;4.40;;;2.65;;
54909;SDS011;63189;51.240;9.964;2023-02-26T05:00:01;4.95;;;2.47;;
54909;SDS011;63189;51.240;9.964;2023-02-26T05:02:31;7.05;;;3.00;;
54909;SDS011;63189;51.240;9.964;2023-02-26T05:04:56;6.13;;;2.80;;
54909;SDS011;63189;51.240;9.964;2023-02-26T05:07:21;7.07;;;3.15;;
54909;SDS011;63189;51.240;9.964;2023-02-26T05:09:47;6.30;;;3.15;;
54909;SDS011;63189;51.240;9.964;2023-02-26T05:12:12;7.18;;;2.85;;
54909;SDS011;63189;51.240;9.964;2023-02-26T05:14:37;5.45;;;3.03;;
54909;SDS011;63189;51.240;9.964;2023-02-26T05:17:03;5.40;;;2.60;;
54909;SDS011;63189;51.240;9.964;2023-02-26T05:19:28;6.38;;;3.70;;
54909;SDS011;63189;51.240;9.964;2023-02-26T05:21:53;7.20;;;3.58;;
54909;SDS011;63189;51.240;9.964;2023-02-26T05:24:19;11.07;;;3.75;;
54909;SDS011;63189;51.240;9.964;2023-02-26T05:26:44;6.65;;;2.92;;
54909;SDS011;63189;51.240;9.964;2023-02-26T05:29:10;7.10;;;3.60;;
54909;SDS011;63189;51.240;9.964;2023-02-26T05:31:36;8.38;;;3.22;;
54909;SDS011;63189;51.240;9.964;2023-02-26T05:34:02;6.32;;;3.63;;
54909;SDS011;63189;51.240;9.964;2023-02-26T05:36:27;7.68;;;3.95;;
54909;SDS011;63189;51.240;9.964;2023-02-26T05:38:53;7.65;;;3.30;;
54909;SDS011;63189;51.240;9.964;2023-02-26T05:41:18;7.82;;;3.08;;
54909;SDS011;63189;51.240;9.964;2023-02-26T05:43:44;9.15;;;4.35;;
54909;SDS011;63189;51.240;9.964;2023-02-26T05:46:09;8.00;;;3.40;;
54909;SDS011;63189;51.240;9.964;2023-02-26T05:48:34;6.72;;;3.28;;
54909;SDS011;63189;51.240;9.964;2023-02-26T05:51:00;8.40;;;3.70;;
54909;SDS011;63189;51.240;9.964;2023-02-26T05:53:25;7.72;;;3.38;;
54909;SDS011;63189;51.240;9.964;2023-02-26T05:55:52;6.50;;;3.78;;
54909;SDS011;63189;51.240;9.964;2023-02-26T05:58:18;9.10;;;3.83;;
54909;SDS011;63189;51.240;9.964;2023-02-26T06:00:43;7.32;;;3.22;;
54909;SDS011;63189;51.240;9.964;2023-02-26T06:03:08;7.97;;;3.80;;
54909;SDS011;63189;51.240;9.964;2023-02-26T06:05:33;6.38;;;3.35;;
54909;SDS011;63189;51.240;9.964;2023-02-26T06:08:00;7.95;;;3.58;;
54909;SDS011;63189;51.240;9.964;2023-02-26T06:10:25;9.40;;;3.22;;
54909;SDS011;63189;51.240;9.964;2023-02-26T06:12:51;8.73;;;3.58;;
54909;SDS011;63189;51.240;9.964;2023-02-26T06:15:16;7.78;;;3.10;;
54909;SDS011;63189;51.240;9.964;2023-02-26T06:17:41;9.32;;;3.75;;
54909;SDS011;63189;51.240;9.964;2023-02-26T06:20:07;6.65;;;3.63;;
54909;SDS011;63189;51.240;9.964;2023-02-26T06:22:33;6.68;;;3.50;;
54909;SDS011;63189;51.240;9.964;2023-02-26T06:24:58;5.47;;;3.47;;
54909;SDS011;63189;51.240;9.964;2023-02-26T06:27:24;5.47;;;3.20;;
54909;SDS011;63189;51.240;9.964;2023-02-26T06:29:50;7.75;;;3.75;;
54909;SDS011;63189;51.240;9.964;2023-02-26T06:32:15;11.77;;;3.20;;
54909;SDS011;63189;51.240;9.964;2023-02-26T06:34:40;4.88;;;3.10;;
54909;SDS011;63189;51.240;9.964;2023-02-26T06:37:07;4.88;;;3.13;;
54909;SDS011;63189;51.240;9.964;2023-02-26T06:39:33;6.25;;;2.88;;
54909;SDS011;63189;51.240;9.964;2023-02-26T06:41:58;6.25;;;3.22;;
54909;SDS011;63189;51.240;9.964;2023-02-26T06:44:23;7.97;;;3.70;;
54909;SDS011;63189;51.240;9.964;2023-02-26T06:46:49;6.32;;;3.58;;
54909;SDS011;63189;51.240;9.964;2023-02-26T06:49:14;5.90;;;3.20;;
54909;SDS011;63189;51.240;9.964;2023-02-26T06:51:40;5.80;;;2.97;;
54909;SDS011;63189;51.240;9.964;2023-02-26T06:54:05;6.25;;;3.47;;
54909;SDS011;63189;51.240;9.964;2023-02-26T06:56:30;5.47;;;2.58;;
54909;SDS011;63189;51.240;9.964;2023-02-26T06:58:56;7.25;;;3.88;;
54909;SDS011;63189;51.240;9.964;2023-02-26T07:01:21;5.82;;;3.45;;
54909;SDS011;63189;51.240;9.964;2023-02-26T07:03:48;10.30;;;3.42;;
54909;SDS011;63189;51.240;9.964;2023-02-26T07:06:14;4.07;;;2.80;;
54909;SDS011;63189;51.240;9.964;2023-02-26T07:08:39;7.07;;;3.05;;
54909;SDS011;63189;51.240;9.964;2023-02-26T07:11:05;5.30;;;2.50;;
54909;SDS011;63189;51.240;9.964;2023-02-26T07:13:30;6.30;;;3.47;;
54909;SDS011;63189;51.240;9.964;2023-02-26T07:15:56;4.88;;;2.50;;
54909;SDS011;63189;51.240;9.964;2023-02-26T07:18:21;15.45;;;6.30;;
54909;SDS011;63189;51.240;9.964;2023-02-26T07:20:50;6.75;;;3.88;;
54909;SDS011;63189;51.240;9.964;2023-02-26T07:23:15;6.35;;;3.33;;
54909;SDS011;63189;51.240;9.964;2023-02-26T07:25:41;5.55;;;2.90;;
54909;SDS011;63189;51.240;9.964;2023-02-26T07:28:06;8.27;;;2.88;;
54909;SDS011;63189;51.240;9.964;2023-02-26T07:30:31;5.57;;;2.75;;
54909;SDS011;63189;51.240;9.964;2023-02-26T07:32:57;8.07;;;2.90;;
54909;SDS011;63189;51.240;9.964;2023-02-26T07:35:22;8.90;;;2.90;;
54909;SDS011;63189;51.240;9.964;2023-02-26T07:37:48;7.80;;;2.55;;
54909;SDS011;63189;51.240;9.964;2023-02-26T07:40:13;3.80;;;2.30;;
54909;SDS011;63189;51.240;9.964;2023-02-26T07:42:39;7.05;;;2.70;;
54909;SDS011;63189;51.240;9.964;2023-02-26T07:45:05;5.25;;;2.35;;
54909;SDS011;63189;51.240;9.964;2023-02-26T07:47:32;5.05;;;2.30;;
54909;SDS011;63189;51.240;9.964;2023-02-26T07:49:58;6.13;;;2.65;;
54909;SDS011;63189;51.240;9.964;2023-02-26T07:52:23;6.93;;;2.65;;
54909;SDS011;63189;51.240;9.964;2023-02-26T07:54:49;7.53;;;2.53;;
54909;SDS011;63189;51.240;9.964;2023-02-26T07:57:14;6.53;;;2.70;;
54909;SDS011;63189;51.240;9.964;2023-02-26T07:59:39;6.13;;;2.38;;
54909;SDS011;63189;51.240;9.964;2023-02-26T08:02:05;5.68;;;2.80;;
54909;SDS011;63189;51.240;9.964;2023-02-26T08:04:30;4.43;;;2.17;;
54909;SDS011;63189;51.240;9.964;2023-02-26T08:06:57;4.47;;;2.10;;
54909;SDS011;63189;51.240;9.964;2023-02-26T08:09:23;4.80;;;2.38;;
54909;SDS011;63189;51.240;9.964;2023-02-26T08:11:49;6.45;;;2.83;;
54909;SDS011;63189;51.240;9.964;2023-02-26T08:14:15;4.15;;;2.13;;
54909;SDS011;63189;51.240;9.964;2023-02-26T08:16:40;5.85;;;2.50;;
54909;SDS011;63189;51.240;9.964;2023-02-26T08:19:06;3.40;;;2.00;;
54909;SDS011;63189;51.240;9.964;2023-02-26T08:21:31;3.55;;;2.15;;
54909;SDS011;63189;51.240;9.964;2023-02-26T08:23:56;5.38;;;2.00;;
54909;SDS011;63189;51.240;9.964;2023-02-26T08:26:22;5.13;;;2.25;;
54909;SDS011;63189;51.240;9.964;2023-02-26T08:28:47;4.93;;;2.20;;
54909;SDS011;63189;51.240;9.964;2023-02-26T08:31:13;3.60;;;1.67;;
54909;SDS011;63189;51.240;9.964;2023-02-26T08:33:39;6.05;;;2.55;;
54909;SDS011;63189;51.240;9.964;2023-02-26T08:36:05;5.88;;;2.30;;
54909;SDS011;63189;51.240;9.964;2023-02-26T08:38:31;4.80;;;2.40;;
54909;SDS011;63189;51.240;9.964;2023-02-26T08:40:57;5.03;;;2.03;;
54909;SDS011;63189;51.240;9.964;2023-02-26T08:43:22;5.00;;;2.60;;
54909;SDS011;63189;51.240;9.964;2023-02-26T08:45:50;5.03;;;2.03;;
54909;SDS011;63189;51.240;9.964;2023-02-26T08:48:16;4.63;;;2.03;;
54909;SDS011;63189;51.240;9.964;2023-02-26T08:50:42;4.20;;;2.22;;
54909;SDS011;63189;51.240;9.964;2023-02-26T08:53:07;3.80;;;2.40;;
54909;SDS011;63189;51.240;9.964;2023-02-26T08:55:32;7.03;;;2.45;;
54909;SDS011;63189;51.240;9.964;2023-02-26T08:57:58;3.05;;;1.83;;
54909;SDS011;63189;51.240;9.964;2023-02-26T09:00:23;3.58;;;1.67;;
54909;SDS011;63189;51.240;9.964;2023-02-26T09:02:48;4.50;;;1.90;;
54909;SDS011;63189;51.240;9.964;2023-02-26T09:05:14;4.40;;;1.85;;
54909;SDS011;63189;51.240;9.964;2023-02-26T09:07:40;3.08;;;1.90;;
54909;SDS011;63189;51.240;9.964;2023-02-26T09:10:06;4.10;;;1.90;;
54909;SDS011;63189;51.240;9.964;2023-02-26T09:12:33;2.72;;;1.80;;
54909;SDS011;63189;51.240;9.964;2023-02-26T09:15:03;2.58;;;1.80;;
54909;SDS011;63189;51.240;9.964;2023-02-26T09:17:30;4.05;;;2.00;;
54909;SDS011;63189;51.240;9.964;2023-02-26T09:19:55;2.45;;;1.75;;
54909;SDS011;63189;51.240;9.964;2023-02-26T09:22:21;4.88;;;1.75;;
54909;SDS011;63189;51.240;9.964;2023-02-26T09:24:46;4.65;;;1.70;;
54909;SDS011;63189;51.240;9.964;2023-02-26T09:27:13;3.67;;;1.60;;
54909;SDS011;63189;51.240;9.964;2023-02-26T09:29:39;4.60;;;2.00;;
54909;SDS011;63189;51.240;9.964;2023-02-26T09:32:04;5.65;;;2.00;;
54909;SDS011;63189;51.240;9.964;2023-02-26T09:34:32;3.67;;;1.50;;
54909;SDS011;63189;51.240;9.964;2023-02-26T09:37:02;1.92;;;1.30;;
54909;SDS011;63189;51.240;9.964;2023-02-26T09:39:32;4.22;;;2.15;;
54909;SDS011;63189;51.240;9.964;2023-02-26T09:42:19;2.83;;;1.63;;
54909;SDS011;63189;51.240;9.964;2023-02-26T09:44:50;2.28;;;1.70;;
54909;SDS011;63189;51.240;9.964;2023-02-26T09:47:21;3.10;;;1.52;;
54909;SDS011;63189;51.240;9.964;2023-02-26T09:58:00;5.43;;;1.67;;
54909;SDS011;63189;51.240;9.964;2023-02-26T10:00:37;3.67;;;1.55;;
54909;SDS011;63189;51.240;9.964;2023-02-26T10:14:26;3.08;;;1.10;;
54909;SDS011;63189;51.240;9.964;2023-02-26T10:19:46;3.27;;;1.20;;
54909;SDS011;63189;51.240;9.964;2023-02-26T10:22:38;3.92;;;1.05;;
54909;SDS011;63189;51.240;9.964;2023-02-26T10:25:14;1.23;;;0.60;;
54909;SDS011;63189;51.240;9.964;2023-02-26T10:30:45;3.15;;;1.38;;
54909;SDS011;63189;51.240;9.964;2023-02-26T10:36:13;2.33;;;1.05;;
54909;SDS011;63189;51.240;9.964;2023-02-26T10:38:46;1.30;;;0.80;;
54909;SDS011;63189;51.240;9.964;2023-02-26T10:41:17;2.45;;;1.30;;
54909;SDS011;63189;51.240;9.964;2023-02-26T10:43:51;3.03;;;1.00;;
54909;SDS011;63189;51.240;9.964;2023-02-26T10:46:42;4.15;;;1.05;;
54909;SDS011;63189;51.240;9.964;2023-02-26T10:49:40;3.60;;;0.80;;
54909;SDS011;63189;51.240;9.964;2023-02-26T10:52:15;0.95;;;0.57;;
54909;SDS011;63189;51.240;9.964;2023-02-26T10:55:00;1.90;;;0.73;;
54909;SDS011;63189;51.240;9.964;2023-02-26T10:57:37;1.45;;;0.70;;
54909;SDS011;63189;51.240;9.964;2023-02-26T11:00:09;3.10;;;0.90;;
54909;SDS011;63189;51.240;9.964;2023-02-26T11:02:42;2.80;;;1.10;;
54909;SDS011;63189;51.240;9.964;2023-02-26T11:05:24;1.52;;;0.80;;
54909;SDS011;63189;51.240;9.964;2023-02-26T11:07:56;2.00;;;0.80;;
54909;SDS011;63189;51.240;9.964;2023-02-26T11:10:38;1.52;;;0.70;;
54909;SDS011;63189;51.240;9.964;2023-02-26T11:15:31;2.67;;;0.98;;
54909;SDS011;63189;51.240;9.964;2023-02-26T11:17:57;2.00;;;0.98;;
54909;SDS011;63189;51.240;9.964;2023-02-26T11:20:42;1.77;;;0.70;;
54909;SDS011;63189;51.240;9.964;2023-02-26T11:23:11;2.08;;;0.98;;
54909;SDS011;63189;51.240;9.964;2023-02-26T11:25:38;0.82;;;0.50;;
54909;SDS011;63189;51.240;9.964;2023-02-26T11:28:29;2.30;;;0.70;;
54909;SDS011;63189;51.240;9.964;2023-02-26T11:30:54;2.90;;;0.80;;
54909;SDS011;63189;51.240;9.964;2023-02-26T11:33:27;2.58;;;0.90;;
54909;SDS011;63189;51.240;9.964;2023-02-26T11:36:00;2.90;;;0.85;;
54909;SDS011;63189;51.240;9.964;2023-02-26T11:38:30;1.85;;;0.95;;
54909;SDS011;63189;51.240;9.964;2023-02-26T11:40:57;2.30;;;0.80;;
54909;SDS011;63189;51.240;9.964;2023-02-26T11:43:26;3.30;;;1.25;;
54909;SDS011;63189;51.240;9.964;2023-02-26T11:46:00;2.72;;;1.10;;
54909;SDS011;63189;51.240;9.964;2023-02-26T11:48:31;4.78;;;1.25;;
54909;SDS011;63189;51.240;9.964;2023-02-26T11:51:18;2.75;;;1.25;;
54909;SDS011;63189;51.240;9.964;2023-02-26T11:53:48;1.30;;;0.70;;
54909;SDS011;63189;51.240;9.964;2023-02-26T11:56:30;2.00;;;0.70;;
54909;SDS011;63189;51.240;9.964;2023-02-26T11:59:06;1.58;;;0.60;;
54909;SDS011;63189;51.240;9.964;2023-02-26T12:01:42;1.88;;;0.77;;
54909;SDS011;63189;51.240;9.964;2023-02-26T12:04:09;2.30;;;0.73;;
54909;SDS011;63189;51.240;9.964;2023-02-26T12:06:36;1.73;;;0.70;;
54909;SDS011;63189;51.240;9.964;2023-02-26T12:09:02;1.80;;;0.80;;
54909;SDS011;63189;51.240;9.964;2023-02-26T12:14:48;9.40;;;3.45;;
54909;SDS011;63189;51.240;9.964;2023-02-26T12:20:16;11.20;;;3.95;;
54909;SDS011;63189;51.240;9.964;2023-02-26T12:26:26;3.17;;;0.80;;
54909;SDS011;63189;51.240;9.964;2023-02-26T12:46:08;4.68;;;2.45;;
54909;SDS011;63189;51.240;9.964;2023-02-26T13:10:23;1.70;;;0.70;;
54909;SDS011;63189;51.240;9.964;2023-02-26T13:13:01;1.95;;;1.00;;
54909;SDS011;63189;51.240;9.964;2023-02-26T13:18:26;1.50;;;0.60;;
54909;SDS011;63189;51.240;9.964;2023-02-26T13:24:10;1.50;;;0.45;;
54909;SDS011;63189;51.240;9.964;2023-02-26T13:26:18;2.75;;;1.40;;
54909;SDS011;63189;51.240;9.964;2023-02-26T13:28:59;1.13;;;0.60;;
54909;SDS011;63189;51.240;9.964;2023-02-26T13:31:51;1.65;;;0.70;;
54909;SDS011;63189;51.240;9.964;2023-02-26T13:34:15;3.78;;;1.13;;
54909;SDS011;63189;51.240;9.964;2023-02-26T13:36:48;3.70;;;0.80;;
54909;SDS011;63189;51.240;9.964;2023-02-26T13:42:00;3.28;;;1.23;;
54909;SDS011;63189;51.240;9.964;2023-02-26T13:44:32;1.25;;;0.77;;
54909;SDS011;63189;51.240;9.964;2023-02-26T13:56:11;2.17;;;0.80;;
54909;SDS011;63189;51.240;9.964;2023-02-26T13:58:38;2.60;;;0.75;;
54909;SDS011;63189;51.240;9.964;2023-02-26T14:03:51;1.67;;;0.55;;
54909;SDS011;63189;51.240;9.964;2023-02-26T14:06:41;1.35;;;0.63;;
54909;SDS011;63189;51.240;9.964;2023-02-26T14:14:40;2.17;;;0.77;;
54909;SDS011;63189;51.240;9.964;2023-02-26T14:25:12;2.50;;;0.80;;
54909;SDS011;63189;51.240;9.964;2023-02-26T14:31:10;3.22;;;0.70;;
54909;SDS011;63189;51.240;9.964;2023-02-26T14:33:42;1.88;;;0.73;;
54909;SDS011;63189;51.240;9.964;2023-02-26T14:36:16;2.67;;;0.60;;
54909;SDS011;63189;51.240;9.964;2023-02-26T14:38:45;1.85;;;1.00;;
54909;SDS011;63189;51.240;9.964;2023-02-26T14:44:10;1.73;;;0.80;;
54909;SDS011;63189;51.240;9.964;2023-02-26T14:46:40;3.17;;;0.70;;
54909;SDS011;63189;51.240;9.964;2023-02-26T14:49:11;2.58;;;1.05;;
54909;SDS011;63189;51.240;9.964;2023-02-26T14:52:05;3.40;;;1.10;;
54909;SDS011;63189;51.240;9.964;2023-02-26T15:03:40;1.67;;;0.50;;
54909;SDS011;63189;51.240;9.964;2023-02-26T15:09:19;2.67;;;0.75;;
54909;SDS011;63189;51.240;9.964;2023-02-26T15:17:18;2.70;;;0.95;;
54909;SDS011;63189;51.240;9.964;2023-02-26T15:22:24;2.05;;;0.75;;
54909;SDS011;63189;51.240;9.964;2023-02-26T15:25:32;1.85;;;0.80;;
54909;SDS011;63189;51.240;9.964;2023-02-26T15:28:04;3.05;;;0.70;;
54909;SDS011;63189;51.240;9.964;2023-02-26T15:30:31;1.38;;;0.70;;
54909;SDS011;63189;51.240;9.964;2023-02-26T15:32:59;1.85;;;0.80;;
54909;SDS011;63189;51.240;9.964;2023-02-26T15:35:29;1.52;;;0.73;;
54909;SDS011;63189;51.240;9.964;2023-02-26T15:37:57;3.08;;;0.85;;
54909;SDS011;63189;51.240;9.964;2023-02-26T15:40:27;2.05;;;0.80;;
54909;SDS011;63189;51.240;9.964;2023-02-26T15:42:56;1.80;;;0.70;;
54909;SDS011;63189;51.240;9.964;2023-02-26T15:48:21;2.92;;;1.08;;
54909;SDS011;63189;51.240;9.964;2023-02-26T15:50:53;3.10;;;0.70;;
54909;SDS011;63189;51.240;9.964;2023-02-26T15:53:27;2.78;;;0.80;;
54909;SDS011;63189;51.240;9.964;2023-02-26T15:55:53;2.67;;;1.00;;
54909;SDS011;63189;51.240;9.964;2023-02-26T15:58:28;2.17;;;0.93;;
54909;SDS011;63189;51.240;9.964;2023-02-26T16:00:59;2.47;;;0.90;;
54909;SDS011;63189;51.240;9.964;2023-02-26T16:03:30;1.42;;;0.60;;
54909;SDS011;63189;51.240;9.964;2023-02-26T16:05:58;1.65;;;0.70;;
54909;SDS011;63189;51.240;9.964;2023-02-26T16:08:24;3.33;;;1.00;;
54909;SDS011;63189;51.240;9.964;2023-02-26T16:10:50;3.60;;;1.25;;
54909;SDS011;63189;51.240;9.964;2023-02-26T16:13:22;2.15;;;0.90;;
54909;SDS011;63189;51.240;9.964;2023-02-26T16:15:57;3.05;;;0.95;;
54909;SDS011;63189;51.240;9.964;2023-02-26T16:18:25;2.03;;;0.85;;
54909;SDS011;63189;51.240;9.964;2023-02-26T16:20:52;2.22;;;1.00;;
54909;SDS011;63189;51.240;9.964;2023-02-26T16:23:22;3.33;;;0.82;;
54909;SDS011;63189;51.240;9.964;2023-02-26T16:26:00;1.00;;;0.55;;
54909;SDS011;63189;51.240;9.964;2023-02-26T16:28:30;2.65;;;0.90;;
54909;SDS011;63189;51.240;9.964;2023-02-26T16:30:58;2.08;;;0.70;;
54909;SDS011;63189;51.240;9.964;2023-02-26T16:33:37;2.25;;;0.90;;
54909;SDS011;63189;51.240;9.964;2023-02-26T16:36:12;1.65;;;0.77;;
54909;SDS011;63189;51.240;9.964;2023-02-26T16:38:48;1.20;;;0.63;;
54909;SDS011;63189;51.240;9.964;2023-02-26T16:41:24;1.73;;;0.65;;
54909;SDS011;63189;51.240;9.964;2023-02-26T16:43:54;2.67;;;0.98;;
54909;SDS011;63189;51.240;9.964;2023-02-26T16:46:30;5.18;;;0.82;;
54909;SDS011;63189;51.240;9.964;2023-02-26T16:49:02;3.20;;;1.00;;
54909;SDS011;63189;51.240;9.964;2023-02-26T16:51:29;2.42;;;0.60;;
54909;SDS011;63189;51.240;9.964;2023-02-26T16:54:00;1.27;;;0.50;;
54909;SDS011;63189;51.240;9.964;2023-02-26T16:56:47;1.63;;;0.70;;
54909;SDS011;63189;51.240;9.964;2023-02-26T16:59:21;2.00;;;0.75;;
54909;SDS011;63189;51.240;9.964;2023-02-26T17:01:53;2.10;;;0.77;;
54909;SDS011;63189;51.240;9.964;2023-02-26T17:04:37;2.28;;;0.60;;
54909;SDS011;63189;51.240;9.964;2023-02-26T17:10:01;1.33;;;0.60;;
54909;SDS011;63189;51.240;9.964;2023-02-26T17:12:43;3.00;;;1.10;;
54909;SDS011;63189;51.240;9.964;2023-02-26T17:15:20;1.60;;;0.75;;
54909;SDS011;63189;51.240;9.964;2023-02-26T17:17:50;3.40;;;0.95;;
54909;SDS011;63189;51.240;9.964;2023-02-26T17:20:20;2.22;;;0.70;;
54909;SDS011;63189;51.240;9.964;2023-02-26T17:22:47;2.65;;;0.80;;
54909;SDS011;63189;51.240;9.964;2023-02-26T17:25:16;2.28;;;0.80;;
54909;SDS011;63189;51.240;9.964;2023-02-26T17:27:43;2.28;;;0.73;;
54909;SDS011;63189;51.240;9.964;2023-02-26T17:30:12;2.50;;;0.77;;
54909;SDS011;63189;51.240;9.964;2023-02-26T17:32:44;1.05;;;0.65;;
54909;SDS011;63189;51.240;9.964;2023-02-26T17:35:13;2.53;;;0.80;;
54909;SDS011;63189;51.240;9.964;2023-02-26T17:37:40;2.35;;;1.10;;
54909;SDS011;63189;51.240;9.964;2023-02-26T17:40:14;2.92;;;1.10;;
54909;SDS011;63189;51.240;9.964;2023-02-26T17:42:45;2.85;;;0.93;;
54909;SDS011;63189;51.240;9.964;2023-02-26T17:45:11;1.83;;;0.98;;
54909;SDS011;63189;51.240;9.964;2023-02-26T17:47:38;1.40;;;0.80;;
54909;SDS011;63189;51.240;9.964;2023-02-26T17:53:11;2.65;;;0.98;;
54909;SDS011;63189;51.240;9.964;2023-02-26T17:55:37;2.40;;;0.90;;
54909;SDS011;63189;51.240;9.964;2023-02-26T17:58:04;2.05;;;1.00;;
54909;SDS011;63189;51.240;9.964;2023-02-26T18:00:32;2.67;;;0.93;;
54909;SDS011;63189;51.240;9.964;2023-02-26T18:03:03;4.22;;;1.50;;
54909;SDS011;63189;51.240;9.964;2023-02-26T18:05:29;1.70;;;1.05;;
54909;SDS011;63189;51.240;9.964;2023-02-26T18:07:57;2.55;;;1.10;;
54909;SDS011;63189;51.240;9.964;2023-02-26T18:10:22;3.42;;;1.00;;
54909;SDS011;63189;51.240;9.964;2023-02-26T18:12:48;1.50;;;0.80;;
54909;SDS011;63189;51.240;9.964;2023-02-26T18:15:14;1.77;;;0.80;;
54909;SDS011;63189;51.240;9.964;2023-02-26T18:17:40;1.25;;;0.68;;
54909;SDS011;63189;51.240;9.964;2023-02-26T18:20:10;1.73;;;0.80;;
54909;SDS011;63189;51.240;9.964;2023-02-26T18:22:40;4.43;;;1.80;;
54909;SDS011;63189;51.240;9.964;2023-02-26T18:25:05;29.55;;;10.90;;